Capitol Logistics 340




KMSY
Louis Armstrong New Orleans International Airport
New Orleans, Louisiana
KBWI
Baltimore/Washington International Thurgood Marshall Airport
Baltimore, Maryland

Activity Log

Date Flight Route Aircraft Duration
No Flights Yet

Route Details

Aircraft Information
Primary: Boeing 737-800BCF
Backup: Boeing 757-200SF
Route Data
Distance: 868nm
Duration: 2h 16m
Recm'd Route: CATLN Q56 KELLN Q58 PEETT THHMP RAVNN6
Origin Wx: KMSY 020553Z COR 22005KT 10SM FEW030 SCT250 27/23 A3001 RMK SLP164 T02670228 10322 20261 403610256 55001
Dest. Wx: KBWI 020554Z 29005KT 10SM CLR 18/16 A2990 RMK AO2 SLP125 60054 T01780161 10233 20178 51002
Notes: